sensor_id;sensor_type;location;lat;lon;timestamp;pressure;altitude;pressure_sealevel;temperature;humidity
8515;BME280;4295;51.024;7.000;2022-10-31T00:00:51;43044.22;;;-13.85;100.00
8515;BME280;4295;51.024;7.000;2022-10-31T00:03:16;43044.22;;;-13.85;100.00
8515;BME280;4295;51.024;7.000;2022-10-31T00:05:45;43672.28;;;-13.91;100.00
8515;BME280;4295;51.024;7.000;2022-10-31T00:08:10;43673.91;;;-13.89;100.00
8515;BME280;4295;51.024;7.000;2022-10-31T00:10:40;43675.16;;;-13.88;100.00
8515;BME280;4295;51.024;7.000;2022-10-31T00:13:06;44304.47;;;-13.92;100.00
8515;BME280;4295;51.024;7.000;2022-10-31T00:15:33;44615.16;;;-13.99;100.00
8515;BME280;4295;51.024;7.000;2022-10-31T00:18:02;44929.59;;;-14.02;100.00
8515;BME280;4295;51.024;7.000;2022-10-31T00:20:28;45236.41;;;-14.13;100.00
8515;BME280;4295;51.024;7.000;2022-10-31T00:22:53;44605.09;;;-14.11;100.00
8515;BME280;4295;51.024;7.000;2022-10-31T00:25:18;43659.13;;;-14.07;100.00
8515;BME280;4295;51.024;7.000;2022-10-31T00:27:45;43340.28;;;-14.10;100.00
8515;BME280;4295;51.024;7.000;2022-10-31T00:30:11;43337.41;;;-14.14;100.00
8515;BME280;4295;51.024;7.000;2022-10-31T00:32:36;43337.41;;;-14.14;100.00
8515;BME280;4295;51.024;7.000;2022-10-31T00:35:01;43332.13;;;-14.20;100.00
8515;BME280;4295;51.024;7.000;2022-10-31T00:37:27;43015.44;;;-14.21;100.00
8515;BME280;4295;51.024;7.000;2022-10-31T00:39:52;42386.16;;;-14.17;100.00
8515;BME280;4295;51.024;7.000;2022-10-31T00:42:17;41754.16;;;-14.16;100.00
8515;BME280;4295;51.024;7.000;2022-10-31T00:44:43;41755.34;;;-14.15;100.00
8515;BME280;4295;51.024;7.000;2022-10-31T00:47:08;41749.00;;;-14.23;100.00
8515;BME280;4295;51.024;7.000;2022-10-31T00:49:33;41431.72;;;-14.24;100.00
8515;BME280;4295;51.024;7.000;2022-10-31T00:51:59;40798.03;;;-14.27;100.00
8515;BME280;4295;51.024;7.000;2022-10-31T00:54:24;40481.25;;;-14.28;100.00
8515;BME280;4295;51.024;7.000;2022-10-31T00:56:49;40162.19;;;-14.32;100.00
8515;BME280;4295;51.024;7.000;2022-10-31T00:59:15;39843.25;;;-14.36;100.00
8515;BME280;4295;51.024;7.000;2022-10-31T01:01:40;39214.88;;;-14.31;100.00
8515;BME280;4295;51.024;7.000;2022-10-31T01:04:05;38271.09;;;-14.26;100.00
8515;BME280;4295;51.024;7.000;2022-10-31T01:06:31;37957.13;;;-14.23;100.00
8515;BME280;4295;51.024;7.000;2022-10-31T01:08:56;37642.44;;;-14.22;100.00
8515;BME280;4295;51.024;7.000;2022-10-31T01:11:22;37957.47;;;-14.23;100.00
8515;BME280;4295;51.024;7.000;2022-10-31T01:13:51;37642.06;;;-14.22;100.00
8515;BME280;4295;51.024;7.000;2022-10-31T01:16:19;37644.59;;;-14.19;100.00
8515;BME280;4295;51.024;7.000;2022-10-31T01:18:45;37644.97;;;-14.18;100.00
8515;BME280;4295;51.024;7.000;2022-10-31T01:21:19;37958.56;;;-14.21;100.00
8515;BME280;4295;51.024;7.000;2022-10-31T01:23:45;38274.38;;;-14.21;100.00
8515;BME280;4295;51.024;7.000;2022-10-31T01:28:38;37960.75;;;-14.18;100.00
8515;BME280;4295;51.024;7.000;2022-10-31T01:31:06;37959.31;;;-14.20;100.00
8515;BME280;4295;51.024;7.000;2022-10-31T01:33:32;37961.47;;;-14.17;100.00
8515;BME280;4295;51.024;7.000;2022-10-31T01:35:59;38274.75;;;-14.21;100.00
8515;BME280;4295;51.024;7.000;2022-10-31T01:38:24;38273.66;;;-14.22;100.00
8515;BME280;4295;51.024;7.000;2022-10-31T01:40:50;38272.56;;;-14.24;100.00
8515;BME280;4295;51.024;7.000;2022-10-31T01:43:17;38586.16;;;-14.27;100.00
8515;BME280;4295;51.024;7.000;2022-10-31T01:45:49;38271.44;;;-14.26;100.00
8515;BME280;4295;51.024;7.000;2022-10-31T01:48:19;38271.81;;;-14.25;100.00
8515;BME280;4295;51.024;7.000;2022-10-31T01:50:48;38271.44;;;-14.26;100.00
8515;BME280;4295;51.024;7.000;2022-10-31T01:53:16;37955.31;;;-14.26;100.00
8515;BME280;4295;51.024;7.000;2022-10-31T01:55:43;37956.75;;;-14.24;100.00
8515;BME280;4295;51.024;7.000;2022-10-31T01:58:19;38586.16;;;-14.27;100.00
8515;BME280;4295;51.024;7.000;2022-10-31T02:00:46;38584.31;;;-14.30;100.00
8515;BME280;4295;51.024;7.000;2022-10-31T02:03:15;38585.06;;;-14.29;100.00
8515;BME280;4295;51.024;7.000;2022-10-31T02:05:42;38897.94;;;-14.33;100.00
8515;BME280;4295;51.024;7.000;2022-10-31T02:08:10;39214.50;;;-14.32;100.00
8515;BME280;4295;51.024;7.000;2022-10-31T02:10:37;39529.63;;;-14.33;100.00
8515;BME280;4295;51.024;7.000;2022-10-31T02:13:06;39842.50;;;-14.37;100.00
8515;BME280;4295;51.024;7.000;2022-10-31T02:15:33;40155.72;;;-14.40;100.00
8515;BME280;4295;51.024;7.000;2022-10-31T02:18:00;40469.34;;;-14.43;100.00
8515;BME280;4295;51.024;7.000;2022-10-31T02:20:32;40783.72;;;-14.45;100.00
8515;BME280;4295;51.024;7.000;2022-10-31T02:36:51;41722.19;;;-14.57;100.00
8515;BME280;4295;51.024;7.000;2022-10-31T02:39:23;42034.19;;;-14.62;100.00
8515;BME280;4295;51.024;7.000;2022-10-31T02:42:17;41717.84;;;-14.63;100.00
8515;BME280;4295;51.024;7.000;2022-10-31T02:45:00;41089.53;;;-14.58;100.00
8515;BME280;4295;51.024;7.000;2022-10-31T02:47:29;40461.66;;;-14.53;100.00
8515;BME280;4295;51.024;7.000;2022-10-31T02:50:01;40458.97;;;-14.57;100.00
8515;BME280;4295;51.024;7.000;2022-10-31T02:52:30;40768.25;;;-14.65;100.00
8515;BME280;4295;51.024;7.000;2022-10-31T02:54:56;40137.06;;;-14.65;100.00
8515;BME280;4295;51.024;7.000;2022-10-31T02:57:30;39820.91;;;-14.65;100.00
8515;BME280;4295;51.024;7.000;2022-10-31T03:00:01;39507.81;;;-14.62;100.00
8515;BME280;4295;51.024;7.000;2022-10-31T03:10:59;40447.84;;;-14.71;100.00
8515;BME280;4295;51.024;7.000;2022-10-31T03:13:36;40446.31;;;-14.73;100.00
8515;BME280;4295;51.024;7.000;2022-10-31T03:18:54;40757.81;;;-14.79;100.00
8515;BME280;4295;51.024;7.000;2022-10-31T03:21:34;40757.03;;;-14.80;100.00
8515;BME280;4295;51.024;7.000;2022-10-31T03:24:01;40442.84;;;-14.78;100.00
8515;BME280;4295;51.024;7.000;2022-10-31T03:26:28;40442.47;;;-14.78;100.00
8515;BME280;4295;51.024;7.000;2022-10-31T03:29:01;40441.69;;;-14.79;100.00
8515;BME280;4295;51.024;7.000;2022-10-31T03:31:39;40442.06;;;-14.79;100.00
8515;BME280;4295;51.024;7.000;2022-10-31T03:34:08;40442.47;;;-14.78;100.00
8515;BME280;4295;51.024;7.000;2022-10-31T03:36:38;40440.53;;;-14.81;100.00
8515;BME280;4295;51.024;7.000;2022-10-31T03:39:06;40127.91;;;-14.77;100.00
8515;BME280;4295;51.024;7.000;2022-10-31T03:41:36;39498.03;;;-14.75;100.00
8515;BME280;4295;51.024;7.000;2022-10-31T03:44:08;39496.94;;;-14.76;100.00
8515;BME280;4295;51.024;7.000;2022-10-31T03:49:13;38867.16;;;-14.74;100.00
8515;BME280;4295;51.024;7.000;2022-10-31T03:54:41;39182.78;;;-14.74;100.00
8515;BME280;4295;51.024;7.000;2022-10-31T03:57:16;39183.16;;;-14.74;100.00
8515;BME280;4295;51.024;7.000;2022-10-31T04:02:33;39499.53;;;-14.73;100.00
8515;BME280;4295;51.024;7.000;2022-10-31T04:05:00;39502.19;;;-14.69;100.00
8515;BME280;4295;51.024;7.000;2022-10-31T04:07:29;39501.44;;;-14.70;100.00
8515;BME280;4295;51.024;7.000;2022-10-31T04:09:57;39816.38;;;-14.71;100.00
8515;BME280;4295;51.024;7.000;2022-10-31T04:12:25;40129.03;;;-14.75;100.00
8515;BME280;4295;51.024;7.000;2022-10-31T04:14:52;40129.81;;;-14.74;100.00
8515;BME280;4295;51.024;7.000;2022-10-31T04:17:21;40445.53;;;-14.74;100.00
8515;BME280;4295;51.024;7.000;2022-10-31T04:19:47;40129.03;;;-14.75;100.00
8515;BME280;4295;51.024;7.000;2022-10-31T04:22:13;39814.09;;;-14.74;100.00
8515;BME280;4295;51.024;7.000;2022-10-31T04:24:39;39185.41;;;-14.71;100.00
8515;BME280;4295;51.024;7.000;2022-10-31T04:27:05;38558.56;;;-14.65;100.00
8515;BME280;4295;51.024;7.000;2022-10-31T04:29:30;38245.16;;;-14.62;100.00
8515;BME280;4295;51.024;7.000;2022-10-31T04:31:56;38244.44;;;-14.63;100.00
8515;BME280;4295;51.024;7.000;2022-10-31T04:34:21;38244.06;;;-14.63;100.00
8515;BME280;4295;51.024;7.000;2022-10-31T04:36:46;38243.31;;;-14.64;100.00
8515;BME280;4295;51.024;7.000;2022-10-31T04:39:12;38243.31;;;-14.64;100.00
8515;BME280;4295;51.024;7.000;2022-10-31T04:41:37;38868.66;;;-14.72;100.00
8515;BME280;4295;51.024;7.000;2022-10-31T04:44:02;39493.53;;;-14.81;100.00
8515;BME280;4295;51.024;7.000;2022-10-31T04:46:28;39177.19;;;-14.82;100.00
8515;BME280;4295;51.024;7.000;2022-10-31T04:48:53;39177.56;;;-14.81;100.00
8515;BME280;4295;51.024;7.000;2022-10-31T04:51:18;39176.81;;;-14.82;100.00
8515;BME280;4295;51.024;7.000;2022-10-31T04:53:44;38547.91;;;-14.79;100.00
8515;BME280;4295;51.024;7.000;2022-10-31T04:56:09;38233.09;;;-14.78;100.00
8515;BME280;4295;51.024;7.000;2022-10-31T04:58:34;37919.06;;;-14.76;100.00
8515;BME280;4295;51.024;7.000;2022-10-31T05:01:00;38545.69;;;-14.82;100.00
8515;BME280;4295;51.024;7.000;2022-10-31T05:03:25;38543.13;;;-14.86;100.00
8515;BME280;4295;51.024;7.000;2022-10-31T05:05:50;37913.59;;;-14.84;100.00
8515;BME280;4295;51.024;7.000;2022-10-31T05:08:16;37599.97;;;-14.81;100.00
8515;BME280;4295;51.024;7.000;2022-10-31T05:10:41;36972.69;;;-14.76;100.00
8515;BME280;4295;51.024;7.000;2022-10-31T05:13:06;36973.03;;;-14.76;100.00
8515;BME280;4295;51.024;7.000;2022-10-31T05:15:32;36655.88;;;-14.78;100.00
8515;BME280;4295;51.024;7.000;2022-10-31T05:17:58;36653.75;;;-14.81;100.00
8515;BME280;4295;51.024;7.000;2022-10-31T05:20:26;36651.31;;;-14.85;100.00
8515;BME280;4295;51.024;7.000;2022-10-31T05:22:53;36649.19;;;-14.88;100.00
8515;BME280;4295;51.024;7.000;2022-10-31T05:25:21;36642.88;;;-14.97;100.00
8515;BME280;4295;51.024;7.000;2022-10-31T05:27:48;36950.00;;;-15.09;100.00
8515;BME280;4295;51.024;7.000;2022-10-31T05:30:16;36318.88;;;-15.10;100.00
8515;BME280;4295;51.024;7.000;2022-10-31T05:32:44;35689.97;;;-15.08;100.00
8515;BME280;4295;51.024;7.000;2022-10-31T05:35:13;35059.75;;;-15.08;100.00
8515;BME280;4295;51.024;7.000;2022-10-31T05:37:38;34745.03;;;-15.07;100.00
8515;BME280;4295;51.024;7.000;2022-10-31T05:40:05;34433.03;;;-15.03;100.00
8515;BME280;4295;51.024;7.000;2022-10-31T05:42:32;34432.34;;;-15.04;100.00
8515;BME280;4295;51.024;7.000;2022-10-31T05:44:57;34119.31;;;-15.01;100.00
8515;BME280;4295;51.024;7.000;2022-10-31T05:47:23;34119.66;;;-15.00;100.00
8515;BME280;4295;51.024;7.000;2022-10-31T05:49:48;34121.63;;;-14.97;100.00
8515;BME280;4295;51.024;7.000;2022-10-31T05:52:14;34435.00;;;-15.00;100.00
8515;BME280;4295;51.024;7.000;2022-10-31T05:54:39;34748.75;;;-15.02;100.00
8515;BME280;4295;51.024;7.000;2022-10-31T05:57:05;35376.22;;;-15.06;100.00
8515;BME280;4295;51.024;7.000;2022-10-31T05:59:30;35690.31;;;-15.07;100.00
8515;BME280;4295;51.024;7.000;2022-10-31T06:01:55;36318.53;;;-15.10;100.00
8515;BME280;4295;51.024;7.000;2022-10-31T06:04:20;37260.59;;;-15.15;100.00
8515;BME280;4295;51.024;7.000;2022-10-31T06:06:46;37578.03;;;-15.12;100.00
8515;BME280;4295;51.024;7.000;2022-10-31T06:09:11;37892.59;;;-15.13;100.00
8515;BME280;4295;51.024;7.000;2022-10-31T06:11:36;38521.41;;;-15.16;100.00
8515;BME280;4295;51.024;7.000;2022-10-31T06:14:02;38835.31;;;-15.18;100.00
8515;BME280;4295;51.024;7.000;2022-10-31T06:16:27;39151.06;;;-15.17;100.00
8515;BME280;4295;51.024;7.000;2022-10-31T06:18:53;39149.94;;;-15.19;100.00
8515;BME280;4295;51.024;7.000;2022-10-31T06:21:18;39150.69;;;-15.18;100.00
8515;BME280;4295;51.024;7.000;2022-10-31T06:23:43;39464.97;;;-15.19;100.00
8515;BME280;4295;51.024;7.000;2022-10-31T06:26:09;39464.22;;;-15.20;100.00
8515;BME280;4295;51.024;7.000;2022-10-31T06:28:34;39461.22;;;-15.24;100.00
8515;BME280;4295;51.024;7.000;2022-10-31T06:30:59;39143.97;;;-15.27;100.00
8515;BME280;4295;51.024;7.000;2022-10-31T06:33:25;39144.34;;;-15.26;100.00
8515;BME280;4295;51.024;7.000;2022-10-31T06:35:50;39143.22;;;-15.28;100.00
8515;BME280;4295;51.024;7.000;2022-10-31T06:38:15;38514.81;;;-15.25;100.00
8515;BME280;4295;51.024;7.000;2022-10-31T06:40:41;37886.78;;;-15.21;100.00
8515;BME280;4295;51.024;7.000;2022-10-31T06:43:06;36946.81;;;-15.13;100.00
8515;BME280;4295;51.024;7.000;2022-10-31T06:45:31;36323.41;;;-15.03;100.00
8515;BME280;4295;51.024;7.000;2022-10-31T06:47:57;36012.03;;;-14.98;100.00
8515;BME280;4295;51.024;7.000;2022-10-31T06:50:23;36013.75;;;-14.95;100.00
8515;BME280;4295;51.024;7.000;2022-10-31T06:52:52;36330.41;;;-14.93;100.00
8515;BME280;4295;51.024;7.000;2022-10-31T06:55:17;36331.44;;;-14.92;100.00
8515;BME280;4295;51.024;7.000;2022-10-31T06:57:49;36332.84;;;-14.90;100.00
8515;BME280;4295;51.024;7.000;2022-10-31T07:00:15;36019.31;;;-14.87;100.00
8515;BME280;4295;51.024;7.000;2022-10-31T07:02:40;35709.22;;;-14.79;100.00
8515;BME280;4295;51.024;7.000;2022-10-31T07:05:05;35398.06;;;-14.73;100.00
8515;BME280;4295;51.024;7.000;2022-10-31T07:07:31;35401.47;;;-14.68;100.00
8515;BME280;4295;51.024;7.000;2022-10-31T07:09:56;35090.25;;;-14.62;100.00
8515;BME280;4295;51.024;7.000;2022-10-31T07:12:21;34779.31;;;-14.56;100.00
8515;BME280;4295;51.024;7.000;2022-10-31T07:14:47;34469.34;;;-14.48;100.00
8515;BME280;4295;51.024;7.000;2022-10-31T07:17:12;34473.03;;;-14.42;100.00
8515;BME280;4295;51.024;7.000;2022-10-31T07:19:37;34162.00;;;-14.36;100.00
8515;BME280;4295;51.024;7.000;2022-10-31T07:22:03;33537.50;;;-14.26;100.00
8515;BME280;4295;51.024;7.000;2022-10-31T07:24:28;33227.34;;;-14.18;100.00
8515;BME280;4295;51.024;7.000;2022-10-31T07:26:54;32602.41;;;-14.09;100.00
8515;BME280;4295;51.024;7.000;2022-10-31T07:29:19;31976.13;;;-14.02;100.00
8515;BME280;4295;51.024;7.000;2022-10-31T07:31:46;31665.75;;;-13.94;100.00
8515;BME280;4295;51.024;7.000;2022-10-31T07:34:11;31667.00;;;-13.92;100.00
8515;BME280;4295;51.024;7.000;2022-10-31T07:36:36;31668.25;;;-13.90;100.00
8515;BME280;4295;51.024;7.000;2022-10-31T07:39:01;31355.97;;;-13.85;100.00
8515;BME280;4295;51.024;7.000;2022-10-31T07:41:27;31671.34;;;-13.85;100.00
8515;BME280;4295;51.024;7.000;2022-10-31T07:43:52;31985.50;;;-13.87;100.00
8515;BME280;4295;51.024;7.000;2022-10-31T07:46:17;32615.41;;;-13.88;100.00
8515;BME280;4295;51.024;7.000;2022-10-31T07:48:43;32620.50;;;-13.80;100.00
8515;BME280;4295;51.024;7.000;2022-10-31T07:51:08;32939.56;;;-13.75;100.00
8515;BME280;4295;51.024;7.000;2022-10-31T07:53:33;32947.88;;;-13.61;100.00
8515;BME280;4295;51.024;7.000;2022-10-31T07:55:59;32953.31;;;-13.53;100.00
8515;BME280;4295;51.024;7.000;2022-10-31T07:58:24;33589.31;;;-13.46;100.00
8515;BME280;4295;51.024;7.000;2022-10-31T08:00:50;34536.09;;;-13.47;100.00
8515;BME280;4295;51.024;7.000;2022-10-31T08:03:17;34857.03;;;-13.39;100.00
8515;BME280;4295;51.024;7.000;2022-10-31T08:05:43;35175.66;;;-13.35;100.00
8515;BME280;4295;51.024;7.000;2022-10-31T08:08:12;35493.72;;;-13.32;100.00
8515;BME280;4295;51.024;7.000;2022-10-31T08:10:37;35814.22;;;-13.26;100.00
8515;BME280;4295;51.024;7.000;2022-10-31T08:13:08;35817.00;;;-13.22;100.00
8515;BME280;4295;51.024;7.000;2022-10-31T08:15:34;35821.13;;;-13.16;100.00
8515;BME280;4295;51.024;7.000;2022-10-31T08:18:03;36136.94;;;-13.16;100.00
8515;BME280;4295;51.024;7.000;2022-10-31T08:20:29;36772.16;;;-13.12;100.00
8515;BME280;4295;51.024;7.000;2022-10-31T08:22:56;37405.78;;;-13.10;100.00
8515;BME280;4295;51.024;7.000;2022-10-31T08:25:22;38040.66;;;-13.07;100.00
8515;BME280;4295;51.024;7.000;2022-10-31T08:27:52;38043.56;;;-13.03;100.00
8515;BME280;4295;51.024;7.000;2022-10-31T08:30:19;38046.84;;;-12.99;100.00
8515;BME280;4295;51.024;7.000;2022-10-31T08:32:45;38366.94;;;-12.94;100.00
8515;BME280;4295;51.024;7.000;2022-10-31T08:35:10;38372.06;;;-12.87;100.00
8515;BME280;4295;51.024;7.000;2022-10-31T08:37:35;38691.94;;;-12.82;100.00
8515;BME280;4295;51.024;7.000;2022-10-31T08:40:01;38693.78;;;-12.80;100.00
8515;BME280;4295;51.024;7.000;2022-10-31T08:42:26;39327.06;;;-12.80;100.00
8515;BME280;4295;51.024;7.000;2022-10-31T08:44:51;39017.09;;;-12.71;100.00
8515;BME280;4295;51.024;7.000;2022-10-31T08:47:17;38705.59;;;-12.64;100.00
8515;BME280;4295;51.024;7.000;2022-10-31T08:49:42;38708.94;;;-12.59;100.00
8515;BME280;4295;51.024;7.000;2022-10-31T08:52:07;38712.25;;;-12.55;100.00
8515;BME280;4295;51.024;7.000;2022-10-31T08:54:32;38719.63;;;-12.44;100.00
8515;BME280;4295;51.024;7.000;2022-10-31T08:56:58;39987.75;;;-12.43;100.00
8515;BME280;4295;51.024;7.000;2022-10-31T08:59:23;40625.50;;;-12.38;100.00
8515;BME280;4295;51.024;7.000;2022-10-31T09:01:48;42208.06;;;-12.42;100.00
8515;BME280;4295;51.024;7.000;2022-10-31T09:04:14;45049.91;;;-12.58;100.00
8515;BME280;4295;51.024;7.000;2022-10-31T09:06:39;46010.59;;;-12.48;100.00
8515;BME280;4295;51.024;7.000;2022-10-31T09:09:04;47276.22;;;-12.53;100.00
8515;BME280;4295;51.024;7.000;2022-10-31T09:11:30;46972.75;;;-12.37;100.00
8515;BME280;4295;51.024;7.000;2022-10-31T09:13:56;48240.69;;;-12.40;100.00
8515;BME280;4295;51.024;7.000;2022-10-31T09:16:21;49191.19;;;-12.43;100.00
8515;BME280;4295;51.024;7.000;2022-10-31T09:18:47;48878.44;;;-12.37;100.00
8515;BME280;4295;51.024;7.000;2022-10-31T09:21:12;47938.66;;;-12.22;100.00
8515;BME280;4295;51.024;7.000;2022-10-31T09:23:37;47315.09;;;-12.09;100.00
8515;BME280;4295;51.024;7.000;2022-10-31T09:26:03;46372.28;;;-11.97;100.00
8515;BME280;4295;51.024;7.000;2022-10-31T09:28:28;46700.97;;;-11.84;100.00
8515;BME280;4295;51.024;7.000;2022-10-31T09:30:54;47346.44;;;-11.73;100.00
8515;BME280;4295;51.024;7.000;2022-10-31T09:33:20;48618.13;;;-11.73;100.00
8515;BME280;4295;51.024;7.000;2022-10-31T09:35:46;51478.38;;;-11.77;100.00
8515;BME280;4295;51.024;7.000;2022-10-31T09:38:13;51814.44;;;-11.59;100.00
8515;BME280;4295;51.024;7.000;2022-10-31T09:40:44;52146.91;;;-11.44;100.00
8515;BME280;4295;51.024;7.000;2022-10-31T09:43:43;55986.91;;;-11.29;100.00
8515;BME280;4295;51.024;7.000;2022-10-31T09:51:19;64963.00;;;-11.02;100.00
8515;BME280;4295;51.024;7.000;2022-10-31T09:56:31;70117.34;;;-10.78;100.00
8515;BME280;4295;51.024;7.000;2022-10-31T09:58:58;72704.19;;;-10.62;100.00
8515;BME280;4295;51.024;7.000;2022-10-31T10:04:30;83047.75;;;-10.22;100.00
8515;BME280;4295;51.024;7.000;2022-10-31T10:06:58;84055.59;;;-9.95;100.00
8515;BME280;4295;51.024;7.000;2022-10-31T10:09:28;87633.91;;;-9.75;100.00
8515;BME280;4295;51.024;7.000;2022-10-31T10:12:13;89623.22;;;-9.42;100.00
8515;BME280;4295;51.024;7.000;2022-10-31T10:17:22;112755.19;;;-8.86;100.00
8515;BME280;4295;51.024;7.000;2022-10-31T10:27:47;142699.34;;;-8.09;100.00
8515;BME280;4295;51.024;7.000;2022-10-31T10:33:07;142838.66;;;-7.53;100.00
8515;BME280;4295;51.024;7.000;2022-10-31T10:35:50;142876.31;;;-7.38;100.00
8515;BME280;4295;51.024;7.000;2022-10-31T10:39:09;142940.34;;;-7.12;100.00
8515;BME280;4295;51.024;7.000;2022-10-31T10:41:17;142922.78;;;-7.19;100.00
8515;BME280;4295;51.024;7.000;2022-10-31T10:43:43;142886.38;;;-7.34;100.00
8515;BME280;4295;51.024;7.000;2022-10-31T10:49:50;142849.97;;;-7.49;100.00
8515;BME280;4295;51.024;7.000;2022-10-31T11:00:30;142966.75;;;-7.02;100.00
8515;BME280;4295;51.024;7.000;2022-10-31T11:02:55;142955.41;;;-7.06;100.00
8515;BME280;4295;51.024;7.000;2022-10-31T11:05:40;142960.44;;;-7.04;100.00
8515;BME280;4295;51.024;7.000;2022-10-31T11:08:07;142957.94;;;-7.05;100.00
8515;BME280;4295;51.024;7.000;2022-10-31T11:10:33;142947.88;;;-7.09;100.00
8515;BME280;4295;51.024;7.000;2022-10-31T11:15:28;142981.81;;;-6.96;100.00
8515;BME280;4295;51.024;7.000;2022-10-31T11:17:56;142969.22;;;-7.01;100.00
8515;BME280;4295;51.024;7.000;2022-10-31T11:20:30;142976.78;;;-6.98;100.00
8515;BME280;4295;51.024;7.000;2022-10-31T11:23:19;142979.28;;;-6.97;100.00
8515;BME280;4295;51.024;7.000;2022-10-31T11:26:01;142999.38;;;-6.89;100.00
8515;BME280;4295;51.024;7.000;2022-10-31T11:28:28;142994.38;;;-6.91;100.00
8515;BME280;4295;51.024;7.000;2022-10-31T11:33:34;143096.13;;;-6.50;100.00
8515;BME280;4295;51.024;7.000;2022-10-31T11:36:02;143161.50;;;-6.23;100.00
8515;BME280;4295;51.024;7.000;2022-10-31T11:38:42;143088.59;;;-6.53;100.00
8515;BME280;4295;51.024;7.000;2022-10-31T11:41:14;143024.53;;;-6.78;100.00
8515;BME280;4295;51.024;7.000;2022-10-31T11:43:50;143020.75;;;-6.80;100.00
8515;BME280;4295;51.024;7.000;2022-10-31T11:46:21;142956.69;;;-7.06;100.00
8515;BME280;4295;51.024;7.000;2022-10-31T11:48:50;142960.44;;;-7.04;100.00
8515;BME280;4295;51.024;7.000;2022-10-31T11:51:26;142979.28;;;-6.97;100.00
8515;BME280;4295;51.024;7.000;2022-10-31T11:53:54;143029.53;;;-6.76;100.00
8515;BME280;4295;51.024;7.000;2022-10-31T11:56:20;143116.22;;;-6.42;100.00
8515;BME280;4295;51.024;7.000;2022-10-31T11:59:04;143175.31;;;-6.18;100.00
8515;BME280;4295;51.024;7.000;2022-10-31T12:01:32;143177.84;;;-6.17;100.00
8515;BME280;4295;51.024;7.000;2022-10-31T12:04:08;143140.13;;;-6.32;100.00
8515;BME280;4295;51.024;7.000;2022-10-31T12:06:36;143185.38;;;-6.14;100.00
8515;BME280;4295;51.024;7.000;2022-10-31T12:09:29;143221.84;;;-5.99;100.00
8515;BME280;4295;51.024;7.000;2022-10-31T12:29:19;143233.13;;;-5.95;100.00
8515;BME280;4295;51.024;7.000;2022-10-31T12:31:58;143225.59;;;-5.98;100.00
8515;BME280;4295;51.024;7.000;2022-10-31T12:42:43;143131.31;;;-6.36;100.00
8515;BME280;4295;51.024;7.000;2022-10-31T12:45:31;143146.41;;;-6.30;100.00
8515;BME280;4295;51.024;7.000;2022-10-31T13:01:27;143123.78;;;-6.39;100.00
8515;BME280;4295;51.024;7.000;2022-10-31T13:04:05;143140.13;;;-6.32;100.00
8515;BME280;4295;51.024;7.000;2022-10-31T13:06:45;143136.34;;;-6.34;100.00
8515;BME280;4295;51.024;7.000;2022-10-31T13:09:17;143098.66;;;-6.49;100.00
8515;BME280;4295;51.024;7.000;2022-10-31T13:11:56;143098.66;;;-6.49;100.00
8515;BME280;4295;51.024;7.000;2022-10-31T13:14:44;143088.59;;;-6.53;100.00
8515;BME280;4295;51.024;7.000;2022-10-31T13:17:33;143102.41;;;-6.47;100.00
8515;BME280;4295;51.024;7.000;2022-10-31T13:22:49;143092.34;;;-6.51;100.00
8515;BME280;4295;51.024;7.000;2022-10-31T13:25:19;143092.34;;;-6.51;100.00
8515;BME280;4295;51.024;7.000;2022-10-31T13:30:29;143091.13;;;-6.52;100.00
8515;BME280;4295;51.024;7.000;2022-10-31T13:33:21;143096.13;;;-6.50;100.00
8515;BME280;4295;51.024;7.000;2022-10-31T13:38:37;143126.31;;;-6.38;100.00
8515;BME280;4295;51.024;7.000;2022-10-31T13:46:38;143083.59;;;-6.55;100.00
8515;BME280;4295;51.024;7.000;2022-10-31T13:49:19;143042.09;;;-6.71;100.00
8515;BME280;4295;51.024;7.000;2022-10-31T13:51:46;143022.00;;;-6.79;100.00
8515;BME280;4295;51.024;7.000;2022-10-31T13:56:51;143006.91;;;-6.86;100.00
8515;BME280;4295;51.024;7.000;2022-10-31T13:59:28;142994.38;;;-6.91;100.00
8515;BME280;4295;51.024;7.000;2022-10-31T14:02:01;143004.41;;;-6.87;100.00
8515;BME280;4295;51.024;7.000;2022-10-31T14:04:49;142975.50;;;-6.98;100.00
8515;BME280;4295;51.024;7.000;2022-10-31T14:07:19;142967.97;;;-7.01;100.00
8515;BME280;4295;51.024;7.000;2022-10-31T14:10:05;142966.75;;;-7.02;100.00
8515;BME280;4295;51.024;7.000;2022-10-31T14:12:38;142960.44;;;-7.04;100.00
8515;BME280;4295;51.024;7.000;2022-10-31T14:17:46;142941.59;;;-7.12;100.00
8515;BME280;4295;51.024;7.000;2022-10-31T14:22:40;142946.63;;;-7.10;100.00
8515;BME280;4295;51.024;7.000;2022-10-31T14:25:33;142964.22;;;-7.03;100.00
8515;BME280;4295;51.024;7.000;2022-10-31T14:28:00;142955.41;;;-7.06;100.00
8515;BME280;4295;51.024;7.000;2022-10-31T14:30:27;142955.41;;;-7.06;100.00
8515;BME280;4295;51.024;7.000;2022-10-31T14:32:59;142917.75;;;-7.21;100.00
8515;BME280;4295;51.024;7.000;2022-10-31T14:35:34;142922.78;;;-7.19;100.00
8515;BME280;4295;51.024;7.000;2022-10-31T14:38:21;142912.72;;;-7.23;100.00
8515;BME280;4295;51.024;7.000;2022-10-31T14:41:08;142916.47;;;-7.22;100.00
8515;BME280;4295;51.024;7.000;2022-10-31T14:52:05;142906.47;;;-7.26;100.00
8515;BME280;4295;51.024;7.000;2022-10-31T14:54:35;142914.00;;;-7.23;100.00
8515;BME280;4295;51.024;7.000;2022-10-31T14:57:12;142893.91;;;-7.31;100.00
8515;BME280;4295;51.024;7.000;2022-10-31T14:59:44;142901.44;;;-7.28;100.00
8515;BME280;4295;51.024;7.000;2022-10-31T15:02:22;142916.47;;;-7.22;100.00
8515;BME280;4295;51.024;7.000;2022-10-31T15:04:51;142921.53;;;-7.20;100.00
8515;BME280;4295;51.024;7.000;2022-10-31T15:07:27;142911.47;;;-7.24;100.00
8515;BME280;4295;51.024;7.000;2022-10-31T15:10:00;142903.94;;;-7.27;100.00
8515;BME280;4295;51.024;7.000;2022-10-31T15:12:34;142876.31;;;-7.38;100.00
8515;BME280;4295;51.024;7.000;2022-10-31T15:17:43;142866.25;;;-7.42;100.00
8515;BME280;4295;51.024;7.000;2022-10-31T15:20:11;142861.25;;;-7.44;100.00
8515;BME280;4295;51.024;7.000;2022-10-31T15:22:37;142854.97;;;-7.47;100.00
8515;BME280;4295;51.024;7.000;2022-10-31T15:25:03;142853.72;;;-7.47;100.00
8515;BME280;4295;51.024;7.000;2022-10-31T15:27:28;142836.13;;;-7.54;100.00
8515;BME280;4295;51.024;7.000;2022-10-31T15:29:55;142833.63;;;-7.55;100.00
8515;BME280;4295;51.024;7.000;2022-10-31T15:32:23;142832.38;;;-7.56;100.00
8515;BME280;4295;51.024;7.000;2022-10-31T15:34:50;142824.84;;;-7.59;100.00
8515;BME280;4295;51.024;7.000;2022-10-31T15:37:19;142817.31;;;-7.62;100.00